Mount Angel, Oregon
Current Conditions -  °F | °C
As of 7:25 AM on Thursday 30 Oct 2014 (Local Time) from KUAO Reporting Station
Light Rain Light Rain  
Wind Chill: 55°   Ceiling: 4700
Heat Index: 55°   Visibility: 9mi
Dew Point: 54°   Wind: 5mph
Humidity: 96%   Direction: 30°NNE
Pressure: 29.9"   Gusts: NA
Location:  45.07°N, 122.8°W
Report Text: KUAO 301425Z AUTO 03004KT 9SM -RA SCT003 BKN047 OVC095 13/12 A2990 RMK AO2 RAB02 P0001 T01280122
Loading
Personal Weather Stations






























Interactive Weather Map
Tropical Storm Tracking
New forecast layout! Learn more

10-Day Weather Forecast

Advertisements
Track Severe Weather on mobile